F/V Mare Liberum — FVHW — position and weather

sailwx.info

Track history (hours):
 
Tides and Currents Weather Stations Pressure Air Temp Water Temp Dewpoint Dewpoint Depression Visibility Wind Speed Wind Dir Waves Ship Positions

F/V Mare Liberum

Last reported at 2014-Oct-01 14:24 UTC. Time now 2014-Oct-01 20:30 UTC.
Position N 46°16' W 001°58'.

Length 21 m.

Type: Fishing. MMSI: 227426000.

Date/timePositionNaut miles runAvg speedWind from/ knotsBaromVisibWave heightAir tempDewpointWater temp
2014-Oct-01 14:24N 46°16' W 001°58'0 0.1
2014-Oct-01 13:14N 46°16' W 001°59'2 1.4
2014-Oct-01 11:31N 46°18' W 001°60'0 0.3
2014-Oct-01 10:27N 46°18' W 001°60'2 1.6
2014-Oct-01 09:09N 46°20' W 002°00'6 9.9
2014-Oct-01 08:33N 46°26' W 002°03'10 9.9
2014-Oct-01 07:32N 46°35' W 002°08'10 9.8
2014-Oct-01 06:33N 46°44' W 002°14'10 0.2
2014-Sep-29 11:32N 46°35' W 002°09'9 9.2
2014-Sep-29 10:33N 46°27' W 002°04'52 4.3
2014-Sep-28 22:29N 45°39' W 001°34'1 0.9
2014-Sep-28 21:33N 45°40' W 001°34'0 0.1
2014-Sep-28 20:33N 45°40' W 001°34'0 0.0
2014-Sep-28 07:05N 45°40' W 001°34'0 0.5
2014-Sep-28 06:19N 45°40' W 001°34'1 1.1
2014-Sep-28 05:29N 45°39' W 001°34'1 1.0
2014-Sep-28 04:22N 45°40' W 001°34'  
2014-Sep-23 07:28N 46°15' W 001°57'8 9.3
2014-Sep-23 06:33N 46°23' W 002°02'10 9.5
2014-Sep-23 05:33N 46°32' W 002°07'10 9.7
2014-Sep-23 04:33N 46°41' W 002°12'  
Track history (hours):
 
Tides and Currents Weather Stations Pressure Air Temp Water Temp Dewpoint Dewpoint Depression Visibility Wind Speed Wind Dir Waves Ship Positions

F/V Mare Liberum

Last reported at 2014-Oct-01 14:24 UTC. Time now 2014-Oct-01 20:30 UTC.
Position N 46°16' W 001°58'.

Length 21 m.

Type: Fishing. MMSI: 227426000.

Date/timePositionNaut miles runAvg speedWind from/ knotsBaromVisibWave heightAir tempDewpointWater temp
2014-Oct-01 14:24N 46°16' W 001°58'0 0.1
2014-Oct-01 13:14N 46°16' W 001°59'2 1.4
2014-Oct-01 11:31N 46°18' W 001°60'0 0.3
2014-Oct-01 10:27N 46°18' W 001°60'2 1.6
2014-Oct-01 09:09N 46°20' W 002°00'6 9.9
2014-Oct-01 08:33N 46°26' W 002°03'10 9.9
2014-Oct-01 07:32N 46°35' W 002°08'10 9.8
2014-Oct-01 06:33N 46°44' W 002°14'10 0.2
2014-Sep-29 11:32N 46°35' W 002°09'9 9.2
2014-Sep-29 10:33N 46°27' W 002°04'52 4.3
2014-Sep-28 22:29N 45°39' W 001°34'1 0.9
2014-Sep-28 21:33N 45°40' W 001°34'0 0.1
2014-Sep-28 20:33N 45°40' W 001°34'0 0.0
2014-Sep-28 07:05N 45°40' W 001°34'0 0.5
2014-Sep-28 06:19N 45°40' W 001°34'1 1.1
2014-Sep-28 05:29N 45°39' W 001°34'1 1.0
2014-Sep-28 04:22N 45°40' W 001°34'  
2014-Sep-23 07:28N 46°15' W 001°57'8 9.3
2014-Sep-23 06:33N 46°23' W 002°02'10 9.5
2014-Sep-23 05:33N 46°32' W 002°07'10 9.7
2014-Sep-23 04:33N 46°41' W 002°12'  

Dump ship's entire track history